<?xml version="1.0" encoding="UTF-8" standalone="no" ?>
<gpx xmlns="http://www.topografix.com/GPX/1/1" xmlns:xsi="http://www.w3.org/2001/XMLSchema-instance" xsi:schemaLocation="http://www.topografix.com/GPX/1/1 http://www.topografix.com/GPX/1/1/gpx.xsd" version="1.1" creator="VisuGPX - https://www.visugpx.com">
  <metadata>
    <name>13503767-ADEPS SPS 12092021 - 15 km</name>
  </metadata>
  <trk>
    <name><![CDATA[13503767-ADEPS SPS 12092021]]></name>
    <trkseg>
      <trkpt lat="50.58608" lon="4.0702">
        <ele>77</ele>
        <time>2021-08-05T13:16:16Z</time>
      </trkpt>
      <trkpt lat="50.58526" lon="4.07035">
        <ele>77</ele>
        <time>2021-08-05T13:17:22Z</time>
      </trkpt>
      <trkpt lat="50.58454" lon="4.07042">
        <ele>78</ele>
        <time>2021-08-05T13:18:20Z</time>
      </trkpt>
      <trkpt lat="50.58416" lon="4.07044">
        <ele>78</ele>
        <time>2021-08-05T13:18:50Z</time>
      </trkpt>
      <trkpt lat="50.58403" lon="4.07049">
        <ele>78</ele>
        <time>2021-08-05T13:19:01Z</time>
      </trkpt>
      <trkpt lat="50.58361" lon="4.06888">
        <ele>80</ele>
        <time>2021-08-05T13:20:30Z</time>
      </trkpt>
      <trkpt lat="50.58367" lon="4.06865">
        <ele>81</ele>
        <time>2021-08-05T13:20:42Z</time>
      </trkpt>
      <trkpt lat="50.58368" lon="4.06854">
        <ele>81</ele>
        <time>2021-08-05T13:20:48Z</time>
      </trkpt>
      <trkpt lat="50.58367" lon="4.0684">
        <ele>82</ele>
        <time>2021-08-05T13:20:55Z</time>
      </trkpt>
      <trkpt lat="50.58362" lon="4.06822">
        <ele>82</ele>
        <time>2021-08-05T13:21:05Z</time>
      </trkpt>
      <trkpt lat="50.58342" lon="4.06771">
        <ele>83</ele>
        <time>2021-08-05T13:21:35Z</time>
      </trkpt>
      <trkpt lat="50.58306" lon="4.06677">
        <ele>84</ele>
        <time>2021-08-05T13:22:31Z</time>
      </trkpt>
      <trkpt lat="50.58294" lon="4.0669">
        <ele>84</ele>
        <time>2021-08-05T13:22:43Z</time>
      </trkpt>
      <trkpt lat="50.58257" lon="4.06607">
        <ele>84</ele>
        <time>2021-08-05T13:23:34Z</time>
      </trkpt>
      <trkpt lat="50.58267" lon="4.06567">
        <ele>84</ele>
        <time>2021-08-05T13:23:56Z</time>
      </trkpt>
      <trkpt lat="50.58316" lon="4.06415">
        <ele>85</ele>
        <time>2021-08-05T13:25:23Z</time>
      </trkpt>
      <trkpt lat="50.58331" lon="4.06349">
        <ele>88</ele>
        <time>2021-08-05T13:25:59Z</time>
      </trkpt>
      <trkpt lat="50.58373" lon="4.06366">
        <ele>87</ele>
        <time>2021-08-05T13:26:33Z</time>
      </trkpt>
      <trkpt lat="50.58416" lon="4.06391">
        <ele>87</ele>
        <time>2021-08-05T13:27:10Z</time>
      </trkpt>
      <trkpt lat="50.58429" lon="4.06397">
        <ele>87</ele>
        <time>2021-08-05T13:27:21Z</time>
      </trkpt>
      <trkpt lat="50.58443" lon="4.06399">
        <ele>87</ele>
        <time>2021-08-05T13:27:32Z</time>
      </trkpt>
      <trkpt lat="50.58517" lon="4.06399">
        <ele>87</ele>
        <time>2021-08-05T13:28:31Z</time>
      </trkpt>
      <trkpt lat="50.58525" lon="4.06403">
        <ele>87</ele>
        <time>2021-08-05T13:28:38Z</time>
      </trkpt>
      <trkpt lat="50.58535" lon="4.06418">
        <ele>87</ele>
        <time>2021-08-05T13:28:49Z</time>
      </trkpt>
      <trkpt lat="50.5854" lon="4.06431">
        <ele>87</ele>
        <time>2021-08-05T13:28:57Z</time>
      </trkpt>
      <trkpt lat="50.58616" lon="4.06407">
        <ele>87</ele>
        <time>2021-08-05T13:29:59Z</time>
      </trkpt>
      <trkpt lat="50.58602" lon="4.06374">
        <ele>87</ele>
        <time>2021-08-05T13:30:19Z</time>
      </trkpt>
      <trkpt lat="50.58519" lon="4.06219">
        <ele>89</ele>
        <time>2021-08-05T13:32:02Z</time>
      </trkpt>
      <trkpt lat="50.58436" lon="4.06065">
        <ele>89</ele>
        <time>2021-08-05T13:33:45Z</time>
      </trkpt>
      <trkpt lat="50.58417" lon="4.06031">
        <ele>90</ele>
        <time>2021-08-05T13:34:08Z</time>
      </trkpt>
      <trkpt lat="50.58397" lon="4.06">
        <ele>90</ele>
        <time>2021-08-05T13:34:30Z</time>
      </trkpt>
      <trkpt lat="50.58382" lon="4.0598">
        <ele>90</ele>
        <time>2021-08-05T13:34:46Z</time>
      </trkpt>
      <trkpt lat="50.58344" lon="4.05933">
        <ele>91</ele>
        <time>2021-08-05T13:35:25Z</time>
      </trkpt>
      <trkpt lat="50.583" lon="4.0588">
        <ele>91</ele>
        <time>2021-08-05T13:36:09Z</time>
      </trkpt>
      <trkpt lat="50.58346" lon="4.05814">
        <ele>92</ele>
        <time>2021-08-05T13:36:59Z</time>
      </trkpt>
      <trkpt lat="50.58371" lon="4.05823">
        <ele>92</ele>
        <time>2021-08-05T13:37:20Z</time>
      </trkpt>
      <trkpt lat="50.5838" lon="4.05821">
        <ele>92</ele>
        <time>2021-08-05T13:37:27Z</time>
      </trkpt>
      <trkpt lat="50.5839" lon="4.05808">
        <ele>92</ele>
        <time>2021-08-05T13:37:37Z</time>
      </trkpt>
      <trkpt lat="50.58413" lon="4.05765">
        <ele>92</ele>
        <time>2021-08-05T13:38:06Z</time>
      </trkpt>
      <trkpt lat="50.58443" lon="4.05805">
        <ele>92</ele>
        <time>2021-08-05T13:38:37Z</time>
      </trkpt>
      <trkpt lat="50.5845" lon="4.05808">
        <ele>92</ele>
        <time>2021-08-05T13:38:43Z</time>
      </trkpt>
      <trkpt lat="50.58457" lon="4.05805">
        <ele>92</ele>
        <time>2021-08-05T13:38:49Z</time>
      </trkpt>
      <trkpt lat="50.58494" lon="4.05861">
        <ele>91</ele>
        <time>2021-08-05T13:39:30Z</time>
      </trkpt>
      <trkpt lat="50.58502" lon="4.05878">
        <ele>91</ele>
        <time>2021-08-05T13:39:41Z</time>
      </trkpt>
      <trkpt lat="50.58527" lon="4.05959">
        <ele>89</ele>
        <time>2021-08-05T13:40:26Z</time>
      </trkpt>
      <trkpt lat="50.58591" lon="4.05913">
        <ele>89</ele>
        <time>2021-08-05T13:41:23Z</time>
      </trkpt>
      <trkpt lat="50.58626" lon="4.05888">
        <ele>89</ele>
        <time>2021-08-05T13:41:54Z</time>
      </trkpt>
      <trkpt lat="50.58662" lon="4.05859">
        <ele>89</ele>
        <time>2021-08-05T13:42:26Z</time>
      </trkpt>
      <trkpt lat="50.58668" lon="4.05853">
        <ele>89</ele>
        <time>2021-08-05T13:42:32Z</time>
      </trkpt>
      <trkpt lat="50.58685" lon="4.05855">
        <ele>89</ele>
        <time>2021-08-05T13:42:45Z</time>
      </trkpt>
      <trkpt lat="50.58698" lon="4.05871">
        <ele>89</ele>
        <time>2021-08-05T13:42:59Z</time>
      </trkpt>
      <trkpt lat="50.58745" lon="4.0596">
        <ele>89</ele>
        <time>2021-08-05T13:43:57Z</time>
      </trkpt>
      <trkpt lat="50.5876" lon="4.05991">
        <ele>88</ele>
        <time>2021-08-05T13:44:17Z</time>
      </trkpt>
      <trkpt lat="50.58781" lon="4.06028">
        <ele>87</ele>
        <time>2021-08-05T13:44:42Z</time>
      </trkpt>
      <trkpt lat="50.58854" lon="4.05834">
        <ele>86</ele>
        <time>2021-08-05T13:46:37Z</time>
      </trkpt>
      <trkpt lat="50.58891" lon="4.05736">
        <ele>86</ele>
        <time>2021-08-05T13:47:35Z</time>
      </trkpt>
      <trkpt lat="50.589" lon="4.05712">
        <ele>86</ele>
        <time>2021-08-05T13:47:49Z</time>
      </trkpt>
      <trkpt lat="50.5897" lon="4.0552">
        <ele>83</ele>
        <time>2021-08-05T13:49:42Z</time>
      </trkpt>
      <trkpt lat="50.59013" lon="4.05583">
        <ele>84</ele>
        <time>2021-08-05T13:50:29Z</time>
      </trkpt>
      <trkpt lat="50.59018" lon="4.05588">
        <ele>83</ele>
        <time>2021-08-05T13:50:33Z</time>
      </trkpt>
      <trkpt lat="50.59026" lon="4.0559">
        <ele>83</ele>
        <time>2021-08-05T13:50:40Z</time>
      </trkpt>
      <trkpt lat="50.59036" lon="4.05582">
        <ele>83</ele>
        <time>2021-08-05T13:50:49Z</time>
      </trkpt>
      <trkpt lat="50.59095" lon="4.05507">
        <ele>80</ele>
        <time>2021-08-05T13:51:50Z</time>
      </trkpt>
      <trkpt lat="50.59174" lon="4.05437">
        <ele>76</ele>
        <time>2021-08-05T13:53:02Z</time>
      </trkpt>
      <trkpt lat="50.59269" lon="4.05348">
        <ele>73</ele>
        <time>2021-08-05T13:54:31Z</time>
      </trkpt>
      <trkpt lat="50.59284" lon="4.05334">
        <ele>73</ele>
        <time>2021-08-05T13:54:45Z</time>
      </trkpt>
      <trkpt lat="50.5936" lon="4.05249">
        <ele>73</ele>
        <time>2021-08-05T13:55:59Z</time>
      </trkpt>
      <trkpt lat="50.59387" lon="4.05209">
        <ele>73</ele>
        <time>2021-08-05T13:56:29Z</time>
      </trkpt>
      <trkpt lat="50.59411" lon="4.05158">
        <ele>73</ele>
        <time>2021-08-05T13:57:01Z</time>
      </trkpt>
      <trkpt lat="50.59429" lon="4.05071">
        <ele>72</ele>
        <time>2021-08-05T13:57:48Z</time>
      </trkpt>
      <trkpt lat="50.59448" lon="4.05027">
        <ele>71</ele>
        <time>2021-08-05T13:58:15Z</time>
      </trkpt>
      <trkpt lat="50.59475" lon="4.04985">
        <ele>71</ele>
        <time>2021-08-05T13:58:45Z</time>
      </trkpt>
      <trkpt lat="50.59526" lon="4.04916">
        <ele>72</ele>
        <time>2021-08-05T13:59:39Z</time>
      </trkpt>
      <trkpt lat="50.59576" lon="4.04829">
        <ele>73</ele>
        <time>2021-08-05T14:00:39Z</time>
      </trkpt>
      <trkpt lat="50.59596" lon="4.04787">
        <ele>72</ele>
        <time>2021-08-05T14:01:05Z</time>
      </trkpt>
      <trkpt lat="50.59616" lon="4.04751">
        <ele>71</ele>
        <time>2021-08-05T14:01:30Z</time>
      </trkpt>
      <trkpt lat="50.59642" lon="4.04714">
        <ele>71</ele>
        <time>2021-08-05T14:01:58Z</time>
      </trkpt>
      <trkpt lat="50.59682" lon="4.04665">
        <ele>70</ele>
        <time>2021-08-05T14:02:38Z</time>
      </trkpt>
      <trkpt lat="50.59727" lon="4.04619">
        <ele>69</ele>
        <time>2021-08-05T14:03:21Z</time>
      </trkpt>
      <trkpt lat="50.5975" lon="4.04585">
        <ele>68</ele>
        <time>2021-08-05T14:03:47Z</time>
      </trkpt>
      <trkpt lat="50.59767" lon="4.04552">
        <ele>68</ele>
        <time>2021-08-05T14:04:08Z</time>
      </trkpt>
      <trkpt lat="50.59774" lon="4.0454">
        <ele>68</ele>
        <time>2021-08-05T14:04:16Z</time>
      </trkpt>
      <trkpt lat="50.59783" lon="4.04531">
        <ele>69</ele>
        <time>2021-08-05T14:04:25Z</time>
      </trkpt>
      <trkpt lat="50.59806" lon="4.04522">
        <ele>69</ele>
        <time>2021-08-05T14:04:44Z</time>
      </trkpt>
      <trkpt lat="50.59813" lon="4.04544">
        <ele>68</ele>
        <time>2021-08-05T14:04:56Z</time>
      </trkpt>
      <trkpt lat="50.59864" lon="4.0468">
        <ele>65</ele>
        <time>2021-08-05T14:06:17Z</time>
      </trkpt>
      <trkpt lat="50.59877" lon="4.04709">
        <ele>65</ele>
        <time>2021-08-05T14:06:35Z</time>
      </trkpt>
      <trkpt lat="50.59912" lon="4.04755">
        <ele>65</ele>
        <time>2021-08-05T14:07:11Z</time>
      </trkpt>
      <trkpt lat="50.59926" lon="4.04765">
        <ele>65</ele>
        <time>2021-08-05T14:07:24Z</time>
      </trkpt>
      <trkpt lat="50.5996" lon="4.04771">
        <ele>65</ele>
        <time>2021-08-05T14:07:51Z</time>
      </trkpt>
      <trkpt lat="50.59967" lon="4.04778">
        <ele>65</ele>
        <time>2021-08-05T14:07:58Z</time>
      </trkpt>
      <trkpt lat="50.59976" lon="4.0479">
        <ele>65</ele>
        <time>2021-08-05T14:08:07Z</time>
      </trkpt>
      <trkpt lat="50.59983" lon="4.04804">
        <ele>65</ele>
        <time>2021-08-05T14:08:16Z</time>
      </trkpt>
      <trkpt lat="50.59988" lon="4.04823">
        <ele>64</ele>
        <time>2021-08-05T14:08:27Z</time>
      </trkpt>
      <trkpt lat="50.59987" lon="4.04831">
        <ele>64</ele>
        <time>2021-08-05T14:08:31Z</time>
      </trkpt>
      <trkpt lat="50.5998" lon="4.04845">
        <ele>64</ele>
        <time>2021-08-05T14:08:40Z</time>
      </trkpt>
      <trkpt lat="50.59971" lon="4.04854">
        <ele>65</ele>
        <time>2021-08-05T14:08:48Z</time>
      </trkpt>
      <trkpt lat="50.59966" lon="4.04865">
        <ele>65</ele>
        <time>2021-08-05T14:08:55Z</time>
      </trkpt>
      <trkpt lat="50.59965" lon="4.0487">
        <ele>65</ele>
        <time>2021-08-05T14:08:58Z</time>
      </trkpt>
      <trkpt lat="50.59969" lon="4.04917">
        <ele>64</ele>
        <time>2021-08-05T14:09:22Z</time>
      </trkpt>
      <trkpt lat="50.59969" lon="4.04932">
        <ele>65</ele>
        <time>2021-08-05T14:09:30Z</time>
      </trkpt>
      <trkpt lat="50.59966" lon="4.04947">
        <ele>66</ele>
        <time>2021-08-05T14:09:38Z</time>
      </trkpt>
      <trkpt lat="50.5996" lon="4.04967">
        <ele>66</ele>
        <time>2021-08-05T14:09:49Z</time>
      </trkpt>
      <trkpt lat="50.59941" lon="4.05002">
        <ele>68</ele>
        <time>2021-08-05T14:10:12Z</time>
      </trkpt>
      <trkpt lat="50.59905" lon="4.05045">
        <ele>69</ele>
        <time>2021-08-05T14:10:48Z</time>
      </trkpt>
      <trkpt lat="50.59902" lon="4.05051">
        <ele>69</ele>
        <time>2021-08-05T14:10:52Z</time>
      </trkpt>
      <trkpt lat="50.59901" lon="4.05069">
        <ele>70</ele>
        <time>2021-08-05T14:11:01Z</time>
      </trkpt>
      <trkpt lat="50.59906" lon="4.05083">
        <ele>71</ele>
        <time>2021-08-05T14:11:10Z</time>
      </trkpt>
      <trkpt lat="50.59931" lon="4.05156">
        <ele>73</ele>
        <time>2021-08-05T14:11:52Z</time>
      </trkpt>
      <trkpt lat="50.59954" lon="4.0523">
        <ele>73</ele>
        <time>2021-08-05T14:12:34Z</time>
      </trkpt>
      <trkpt lat="50.59962" lon="4.05297">
        <ele>74</ele>
        <time>2021-08-05T14:13:08Z</time>
      </trkpt>
      <trkpt lat="50.59967" lon="4.05318">
        <ele>75</ele>
        <time>2021-08-05T14:13:20Z</time>
      </trkpt>
      <trkpt lat="50.59987" lon="4.05329">
        <ele>75</ele>
        <time>2021-08-05T14:13:37Z</time>
      </trkpt>
      <trkpt lat="50.60014" lon="4.0533">
        <ele>75</ele>
        <time>2021-08-05T14:13:58Z</time>
      </trkpt>
      <trkpt lat="50.6005" lon="4.05348">
        <ele>75</ele>
        <time>2021-08-05T14:14:28Z</time>
      </trkpt>
      <trkpt lat="50.60073" lon="4.05357">
        <ele>75</ele>
        <time>2021-08-05T14:14:47Z</time>
      </trkpt>
      <trkpt lat="50.60093" lon="4.05359">
        <ele>76</ele>
        <time>2021-08-05T14:15:03Z</time>
      </trkpt>
      <trkpt lat="50.60121" lon="4.05354">
        <ele>75</ele>
        <time>2021-08-05T14:15:26Z</time>
      </trkpt>
      <trkpt lat="50.60126" lon="4.05343">
        <ele>75</ele>
        <time>2021-08-05T14:15:33Z</time>
      </trkpt>
      <trkpt lat="50.60135" lon="4.05331">
        <ele>74</ele>
        <time>2021-08-05T14:15:42Z</time>
      </trkpt>
      <trkpt lat="50.60142" lon="4.05325">
        <ele>74</ele>
        <time>2021-08-05T14:15:49Z</time>
      </trkpt>
      <trkpt lat="50.60152" lon="4.05321">
        <ele>74</ele>
        <time>2021-08-05T14:15:57Z</time>
      </trkpt>
      <trkpt lat="50.60183" lon="4.05316">
        <ele>73</ele>
        <time>2021-08-05T14:16:22Z</time>
      </trkpt>
      <trkpt lat="50.60196" lon="4.05312">
        <ele>73</ele>
        <time>2021-08-05T14:16:33Z</time>
      </trkpt>
      <trkpt lat="50.60269" lon="4.05268">
        <ele>71</ele>
        <time>2021-08-05T14:17:35Z</time>
      </trkpt>
      <trkpt lat="50.60286" lon="4.05256">
        <ele>71</ele>
        <time>2021-08-05T14:17:50Z</time>
      </trkpt>
      <trkpt lat="50.6029" lon="4.05226">
        <ele>70</ele>
        <time>2021-08-05T14:18:06Z</time>
      </trkpt>
      <trkpt lat="50.6029" lon="4.05205">
        <ele>69</ele>
        <time>2021-08-05T14:18:16Z</time>
      </trkpt>
      <trkpt lat="50.60284" lon="4.05175">
        <ele>68</ele>
        <time>2021-08-05T14:18:32Z</time>
      </trkpt>
      <trkpt lat="50.60281" lon="4.05156">
        <ele>67</ele>
        <time>2021-08-05T14:18:42Z</time>
      </trkpt>
      <trkpt lat="50.60283" lon="4.05146">
        <ele>67</ele>
        <time>2021-08-05T14:18:48Z</time>
      </trkpt>
      <trkpt lat="50.60289" lon="4.05132">
        <ele>67</ele>
        <time>2021-08-05T14:18:56Z</time>
      </trkpt>
      <trkpt lat="50.60329" lon="4.05094">
        <ele>69</ele>
        <time>2021-08-05T14:19:34Z</time>
      </trkpt>
      <trkpt lat="50.60338" lon="4.05083">
        <ele>69</ele>
        <time>2021-08-05T14:19:43Z</time>
      </trkpt>
      <trkpt lat="50.60347" lon="4.05062">
        <ele>69</ele>
        <time>2021-08-05T14:19:56Z</time>
      </trkpt>
      <trkpt lat="50.60352" lon="4.05038">
        <ele>68</ele>
        <time>2021-08-05T14:20:08Z</time>
      </trkpt>
      <trkpt lat="50.60351" lon="4.05029">
        <ele>68</ele>
        <time>2021-08-05T14:20:13Z</time>
      </trkpt>
      <trkpt lat="50.60347" lon="4.05016">
        <ele>67</ele>
        <time>2021-08-05T14:20:20Z</time>
      </trkpt>
      <trkpt lat="50.60336" lon="4.04997">
        <ele>66</ele>
        <time>2021-08-05T14:20:33Z</time>
      </trkpt>
      <trkpt lat="50.6033" lon="4.04977">
        <ele>65</ele>
        <time>2021-08-05T14:20:45Z</time>
      </trkpt>
      <trkpt lat="50.60329" lon="4.04967">
        <ele>65</ele>
        <time>2021-08-05T14:20:50Z</time>
      </trkpt>
      <trkpt lat="50.60335" lon="4.0495">
        <ele>64</ele>
        <time>2021-08-05T14:21:00Z</time>
      </trkpt>
      <trkpt lat="50.60348" lon="4.04926">
        <ele>64</ele>
        <time>2021-08-05T14:21:16Z</time>
      </trkpt>
      <trkpt lat="50.60369" lon="4.04874">
        <ele>65</ele>
        <time>2021-08-05T14:21:47Z</time>
      </trkpt>
      <trkpt lat="50.60378" lon="4.04851">
        <ele>65</ele>
        <time>2021-08-05T14:22:01Z</time>
      </trkpt>
      <trkpt lat="50.60388" lon="4.04807">
        <ele>66</ele>
        <time>2021-08-05T14:22:25Z</time>
      </trkpt>
      <trkpt lat="50.60392" lon="4.04774">
        <ele>66</ele>
        <time>2021-08-05T14:22:42Z</time>
      </trkpt>
      <trkpt lat="50.60392" lon="4.04738">
        <ele>66</ele>
        <time>2021-08-05T14:23:00Z</time>
      </trkpt>
      <trkpt lat="50.60387" lon="4.04675">
        <ele>64</ele>
        <time>2021-08-05T14:23:32Z</time>
      </trkpt>
      <trkpt lat="50.60381" lon="4.04639">
        <ele>64</ele>
        <time>2021-08-05T14:23:51Z</time>
      </trkpt>
      <trkpt lat="50.60375" lon="4.0461">
        <ele>64</ele>
        <time>2021-08-05T14:24:07Z</time>
      </trkpt>
      <trkpt lat="50.60432" lon="4.04586">
        <ele>64</ele>
        <time>2021-08-05T14:24:54Z</time>
      </trkpt>
      <trkpt lat="50.60463" lon="4.04568">
        <ele>66</ele>
        <time>2021-08-05T14:25:20Z</time>
      </trkpt>
      <trkpt lat="50.60478" lon="4.0456">
        <ele>67</ele>
        <time>2021-08-05T14:25:33Z</time>
      </trkpt>
      <trkpt lat="50.60495" lon="4.04547">
        <ele>68</ele>
        <time>2021-08-05T14:25:48Z</time>
      </trkpt>
      <trkpt lat="50.60509" lon="4.04535">
        <ele>69</ele>
        <time>2021-08-05T14:26:01Z</time>
      </trkpt>
      <trkpt lat="50.60529" lon="4.04514">
        <ele>70</ele>
        <time>2021-08-05T14:26:20Z</time>
      </trkpt>
      <trkpt lat="50.60558" lon="4.04483">
        <ele>71</ele>
        <time>2021-08-05T14:26:48Z</time>
      </trkpt>
      <trkpt lat="50.60596" lon="4.04441">
        <ele>71</ele>
        <time>2021-08-05T14:27:25Z</time>
      </trkpt>
      <trkpt lat="50.60644" lon="4.04383">
        <ele>71</ele>
        <time>2021-08-05T14:28:14Z</time>
      </trkpt>
      <trkpt lat="50.60659" lon="4.04363">
        <ele>71</ele>
        <time>2021-08-05T14:28:29Z</time>
      </trkpt>
      <trkpt lat="50.60687" lon="4.04328">
        <ele>71</ele>
        <time>2021-08-05T14:28:58Z</time>
      </trkpt>
      <trkpt lat="50.60735" lon="4.04272">
        <ele>71</ele>
        <time>2021-08-05T14:29:46Z</time>
      </trkpt>
      <trkpt lat="50.60775" lon="4.04251">
        <ele>72</ele>
        <time>2021-08-05T14:30:20Z</time>
      </trkpt>
      <trkpt lat="50.60716" lon="4.04181">
        <ele>72</ele>
        <time>2021-08-05T14:31:19Z</time>
      </trkpt>
      <trkpt lat="50.60667" lon="4.04148">
        <ele>72</ele>
        <time>2021-08-05T14:32:01Z</time>
      </trkpt>
      <trkpt lat="50.6062" lon="4.0413">
        <ele>71</ele>
        <time>2021-08-05T14:32:40Z</time>
      </trkpt>
      <trkpt lat="50.6056" lon="4.04125">
        <ele>72</ele>
        <time>2021-08-05T14:33:28Z</time>
      </trkpt>
      <trkpt lat="50.60509" lon="4.04114">
        <ele>72</ele>
        <time>2021-08-05T14:34:10Z</time>
      </trkpt>
      <trkpt lat="50.60491" lon="4.04103">
        <ele>72</ele>
        <time>2021-08-05T14:34:25Z</time>
      </trkpt>
      <trkpt lat="50.60457" lon="4.04081">
        <ele>72</ele>
        <time>2021-08-05T14:34:54Z</time>
      </trkpt>
      <trkpt lat="50.60427" lon="4.04067">
        <ele>72</ele>
        <time>2021-08-05T14:35:19Z</time>
      </trkpt>
      <trkpt lat="50.60402" lon="4.0407">
        <ele>72</ele>
        <time>2021-08-05T14:35:40Z</time>
      </trkpt>
      <trkpt lat="50.60364" lon="4.04094">
        <ele>73</ele>
        <time>2021-08-05T14:36:12Z</time>
      </trkpt>
      <trkpt lat="50.60284" lon="4.04153">
        <ele>77</ele>
        <time>2021-08-05T14:37:23Z</time>
      </trkpt>
      <trkpt lat="50.602" lon="4.04215">
        <ele>79</ele>
        <time>2021-08-05T14:38:37Z</time>
      </trkpt>
      <trkpt lat="50.60179" lon="4.04202">
        <ele>79</ele>
        <time>2021-08-05T14:38:55Z</time>
      </trkpt>
      <trkpt lat="50.60089" lon="4.041">
        <ele>80</ele>
        <time>2021-08-05T14:40:24Z</time>
      </trkpt>
      <trkpt lat="50.60015" lon="4.04017">
        <ele>82</ele>
        <time>2021-08-05T14:41:37Z</time>
      </trkpt>
      <trkpt lat="50.59977" lon="4.03974">
        <ele>82</ele>
        <time>2021-08-05T14:42:14Z</time>
      </trkpt>
      <trkpt lat="50.59924" lon="4.03915">
        <ele>83</ele>
        <time>2021-08-05T14:43:06Z</time>
      </trkpt>
      <trkpt lat="50.59871" lon="4.03855">
        <ele>81</ele>
        <time>2021-08-05T14:43:59Z</time>
      </trkpt>
      <trkpt lat="50.59832" lon="4.03809">
        <ele>79</ele>
        <time>2021-08-05T14:44:38Z</time>
      </trkpt>
      <trkpt lat="50.59797" lon="4.0377">
        <ele>79</ele>
        <time>2021-08-05T14:45:12Z</time>
      </trkpt>
      <trkpt lat="50.59721" lon="4.03712">
        <ele>80</ele>
        <time>2021-08-05T14:46:20Z</time>
      </trkpt>
      <trkpt lat="50.59664" lon="4.03668">
        <ele>81</ele>
        <time>2021-08-05T14:47:10Z</time>
      </trkpt>
      <trkpt lat="50.59647" lon="4.03709">
        <ele>82</ele>
        <time>2021-08-05T14:47:35Z</time>
      </trkpt>
      <trkpt lat="50.59637" lon="4.03706">
        <ele>81</ele>
        <time>2021-08-05T14:47:43Z</time>
      </trkpt>
      <trkpt lat="50.59627" lon="4.0371">
        <ele>82</ele>
        <time>2021-08-05T14:47:52Z</time>
      </trkpt>
      <trkpt lat="50.59608" lon="4.03724">
        <ele>81</ele>
        <time>2021-08-05T14:48:08Z</time>
      </trkpt>
      <trkpt lat="50.5959" lon="4.03723">
        <ele>81</ele>
        <time>2021-08-05T14:48:23Z</time>
      </trkpt>
      <trkpt lat="50.59543" lon="4.0369">
        <ele>83</ele>
        <time>2021-08-05T14:49:04Z</time>
      </trkpt>
      <trkpt lat="50.59496" lon="4.03652">
        <ele>84</ele>
        <time>2021-08-05T14:49:46Z</time>
      </trkpt>
      <trkpt lat="50.59458" lon="4.03621">
        <ele>83</ele>
        <time>2021-08-05T14:50:21Z</time>
      </trkpt>
      <trkpt lat="50.59409" lon="4.03574">
        <ele>82</ele>
        <time>2021-08-05T14:51:07Z</time>
      </trkpt>
      <trkpt lat="50.5934" lon="4.03478">
        <ele>79</ele>
        <time>2021-08-05T14:52:20Z</time>
      </trkpt>
      <trkpt lat="50.59256" lon="4.0333">
        <ele>78</ele>
        <time>2021-08-05T14:54:01Z</time>
      </trkpt>
      <trkpt lat="50.59185" lon="4.03203">
        <ele>74</ele>
        <time>2021-08-05T14:55:27Z</time>
      </trkpt>
      <trkpt lat="50.59147" lon="4.03125">
        <ele>73</ele>
        <time>2021-08-05T14:56:17Z</time>
      </trkpt>
      <trkpt lat="50.5914" lon="4.03099">
        <ele>73</ele>
        <time>2021-08-05T14:56:32Z</time>
      </trkpt>
      <trkpt lat="50.59137" lon="4.03057">
        <ele>72</ele>
        <time>2021-08-05T14:56:53Z</time>
      </trkpt>
      <trkpt lat="50.59144" lon="4.02998">
        <ele>73</ele>
        <time>2021-08-05T14:57:24Z</time>
      </trkpt>
      <trkpt lat="50.59146" lon="4.02958">
        <ele>72</ele>
        <time>2021-08-05T14:57:44Z</time>
      </trkpt>
      <trkpt lat="50.59144" lon="4.02942">
        <ele>72</ele>
        <time>2021-08-05T14:57:52Z</time>
      </trkpt>
      <trkpt lat="50.59138" lon="4.02932">
        <ele>72</ele>
        <time>2021-08-05T14:57:59Z</time>
      </trkpt>
      <trkpt lat="50.59139" lon="4.02898">
        <ele>72</ele>
        <time>2021-08-05T14:58:16Z</time>
      </trkpt>
      <trkpt lat="50.5915" lon="4.02816">
        <ele>70</ele>
        <time>2021-08-05T14:58:59Z</time>
      </trkpt>
      <trkpt lat="50.59152" lon="4.02781">
        <ele>70</ele>
        <time>2021-08-05T14:59:17Z</time>
      </trkpt>
      <trkpt lat="50.59148" lon="4.02728">
        <ele>70</ele>
        <time>2021-08-05T14:59:44Z</time>
      </trkpt>
      <trkpt lat="50.5914" lon="4.0268">
        <ele>70</ele>
        <time>2021-08-05T15:00:09Z</time>
      </trkpt>
      <trkpt lat="50.59141" lon="4.02643">
        <ele>71</ele>
        <time>2021-08-05T15:00:28Z</time>
      </trkpt>
      <trkpt lat="50.5917" lon="4.02535">
        <ele>74</ele>
        <time>2021-08-05T15:01:28Z</time>
      </trkpt>
      <trkpt lat="50.5917" lon="4.02508">
        <ele>75</ele>
        <time>2021-08-05T15:01:41Z</time>
      </trkpt>
      <trkpt lat="50.59166" lon="4.02488">
        <ele>75</ele>
        <time>2021-08-05T15:01:52Z</time>
      </trkpt>
      <trkpt lat="50.59127" lon="4.02381">
        <ele>77</ele>
        <time>2021-08-05T15:02:55Z</time>
      </trkpt>
      <trkpt lat="50.59101" lon="4.02303">
        <ele>76</ele>
        <time>2021-08-05T15:03:40Z</time>
      </trkpt>
      <trkpt lat="50.59084" lon="4.02251">
        <ele>75</ele>
        <time>2021-08-05T15:04:09Z</time>
      </trkpt>
      <trkpt lat="50.59078" lon="4.02221">
        <ele>75</ele>
        <time>2021-08-05T15:04:25Z</time>
      </trkpt>
      <trkpt lat="50.59" lon="4.02235">
        <ele>71</ele>
        <time>2021-08-05T15:05:28Z</time>
      </trkpt>
      <trkpt lat="50.58984" lon="4.02252">
        <ele>71</ele>
        <time>2021-08-05T15:05:44Z</time>
      </trkpt>
      <trkpt lat="50.58978" lon="4.02275">
        <ele>71</ele>
        <time>2021-08-05T15:05:56Z</time>
      </trkpt>
      <trkpt lat="50.58966" lon="4.02364">
        <ele>70</ele>
        <time>2021-08-05T15:06:43Z</time>
      </trkpt>
      <trkpt lat="50.58931" lon="4.02417">
        <ele>69</ele>
        <time>2021-08-05T15:07:21Z</time>
      </trkpt>
      <trkpt lat="50.58869" lon="4.02487">
        <ele>74</ele>
        <time>2021-08-05T15:08:23Z</time>
      </trkpt>
      <trkpt lat="50.58802" lon="4.02616">
        <ele>77</ele>
        <time>2021-08-05T15:09:47Z</time>
      </trkpt>
      <trkpt lat="50.58774" lon="4.02678">
        <ele>77</ele>
        <time>2021-08-05T15:10:26Z</time>
      </trkpt>
      <trkpt lat="50.58761" lon="4.02716">
        <ele>77</ele>
        <time>2021-08-05T15:10:48Z</time>
      </trkpt>
      <trkpt lat="50.58662" lon="4.02635">
        <ele>79</ele>
        <time>2021-08-05T15:12:17Z</time>
      </trkpt>
      <trkpt lat="50.5857" lon="4.02557">
        <ele>80</ele>
        <time>2021-08-05T15:13:41Z</time>
      </trkpt>
      <trkpt lat="50.58537" lon="4.02525">
        <ele>80</ele>
        <time>2021-08-05T15:14:12Z</time>
      </trkpt>
      <trkpt lat="50.58487" lon="4.02476">
        <ele>80</ele>
        <time>2021-08-05T15:14:59Z</time>
      </trkpt>
      <trkpt lat="50.58432" lon="4.02419">
        <ele>80</ele>
        <time>2021-08-05T15:15:52Z</time>
      </trkpt>
      <trkpt lat="50.58396" lon="4.02377">
        <ele>81</ele>
        <time>2021-08-05T15:16:28Z</time>
      </trkpt>
      <trkpt lat="50.58351" lon="4.02316">
        <ele>81</ele>
        <time>2021-08-05T15:17:15Z</time>
      </trkpt>
      <trkpt lat="50.58319" lon="4.02285">
        <ele>81</ele>
        <time>2021-08-05T15:17:45Z</time>
      </trkpt>
      <trkpt lat="50.58309" lon="4.02278">
        <ele>81</ele>
        <time>2021-08-05T15:17:54Z</time>
      </trkpt>
      <trkpt lat="50.58295" lon="4.02271">
        <ele>82</ele>
        <time>2021-08-05T15:18:06Z</time>
      </trkpt>
      <trkpt lat="50.58281" lon="4.02262">
        <ele>82</ele>
        <time>2021-08-05T15:18:18Z</time>
      </trkpt>
      <trkpt lat="50.58268" lon="4.02247">
        <ele>83</ele>
        <time>2021-08-05T15:18:31Z</time>
      </trkpt>
      <trkpt lat="50.58228" lon="4.0217">
        <ele>83</ele>
        <time>2021-08-05T15:19:21Z</time>
      </trkpt>
      <trkpt lat="50.58205" lon="4.02138">
        <ele>82</ele>
        <time>2021-08-05T15:19:46Z</time>
      </trkpt>
      <trkpt lat="50.58167" lon="4.0211">
        <ele>81</ele>
        <time>2021-08-05T15:20:19Z</time>
      </trkpt>
      <trkpt lat="50.58167" lon="4.0212">
        <ele>81</ele>
        <time>2021-08-05T15:20:25Z</time>
      </trkpt>
      <trkpt lat="50.58165" lon="4.02138">
        <ele>81</ele>
        <time>2021-08-05T15:20:34Z</time>
      </trkpt>
      <trkpt lat="50.58145" lon="4.02216">
        <ele>83</ele>
        <time>2021-08-05T15:21:17Z</time>
      </trkpt>
      <trkpt lat="50.58137" lon="4.02245">
        <ele>83</ele>
        <time>2021-08-05T15:21:33Z</time>
      </trkpt>
      <trkpt lat="50.58095" lon="4.02369">
        <ele>82</ele>
        <time>2021-08-05T15:22:44Z</time>
      </trkpt>
      <trkpt lat="50.5809" lon="4.02391">
        <ele>83</ele>
        <time>2021-08-05T15:22:56Z</time>
      </trkpt>
      <trkpt lat="50.5809" lon="4.02425">
        <ele>83</ele>
        <time>2021-08-05T15:23:13Z</time>
      </trkpt>
      <trkpt lat="50.58106" lon="4.02509">
        <ele>84</ele>
        <time>2021-08-05T15:23:58Z</time>
      </trkpt>
      <trkpt lat="50.58111" lon="4.02556">
        <ele>84</ele>
        <time>2021-08-05T15:24:22Z</time>
      </trkpt>
      <trkpt lat="50.58111" lon="4.02591">
        <ele>84</ele>
        <time>2021-08-05T15:24:40Z</time>
      </trkpt>
      <trkpt lat="50.58128" lon="4.02683">
        <ele>85</ele>
        <time>2021-08-05T15:25:29Z</time>
      </trkpt>
      <trkpt lat="50.58129" lon="4.02705">
        <ele>85</ele>
        <time>2021-08-05T15:25:40Z</time>
      </trkpt>
      <trkpt lat="50.58117" lon="4.02843">
        <ele>86</ele>
        <time>2021-08-05T15:26:51Z</time>
      </trkpt>
      <trkpt lat="50.58105" lon="4.02919">
        <ele>86</ele>
        <time>2021-08-05T15:27:30Z</time>
      </trkpt>
      <trkpt lat="50.58088" lon="4.02991">
        <ele>86</ele>
        <time>2021-08-05T15:28:10Z</time>
      </trkpt>
      <trkpt lat="50.58083" lon="4.03018">
        <ele>86</ele>
        <time>2021-08-05T15:28:24Z</time>
      </trkpt>
      <trkpt lat="50.58097" lon="4.03109">
        <ele>86</ele>
        <time>2021-08-05T15:29:11Z</time>
      </trkpt>
      <trkpt lat="50.58102" lon="4.03143">
        <ele>86</ele>
        <time>2021-08-05T15:29:29Z</time>
      </trkpt>
      <trkpt lat="50.58102" lon="4.03199">
        <ele>86</ele>
        <time>2021-08-05T15:29:58Z</time>
      </trkpt>
      <trkpt lat="50.58095" lon="4.0331">
        <ele>86</ele>
        <time>2021-08-05T15:30:54Z</time>
      </trkpt>
      <trkpt lat="50.58078" lon="4.03397">
        <ele>88</ele>
        <time>2021-08-05T15:31:41Z</time>
      </trkpt>
      <trkpt lat="50.58078" lon="4.03478">
        <ele>90</ele>
        <time>2021-08-05T15:32:22Z</time>
      </trkpt>
      <trkpt lat="50.58074" lon="4.03614">
        <ele>91</ele>
        <time>2021-08-05T15:33:31Z</time>
      </trkpt>
      <trkpt lat="50.58071" lon="4.03683">
        <ele>92</ele>
        <time>2021-08-05T15:34:06Z</time>
      </trkpt>
      <trkpt lat="50.58071" lon="4.03726">
        <ele>93</ele>
        <time>2021-08-05T15:34:28Z</time>
      </trkpt>
      <trkpt lat="50.58077" lon="4.03819">
        <ele>93</ele>
        <time>2021-08-05T15:35:16Z</time>
      </trkpt>
      <trkpt lat="50.58087" lon="4.03904">
        <ele>92</ele>
        <time>2021-08-05T15:36:00Z</time>
      </trkpt>
      <trkpt lat="50.581" lon="4.04062">
        <ele>92</ele>
        <time>2021-08-05T15:37:21Z</time>
      </trkpt>
      <trkpt lat="50.58103" lon="4.04098">
        <ele>92</ele>
        <time>2021-08-05T15:37:39Z</time>
      </trkpt>
      <trkpt lat="50.5811" lon="4.04288">
        <ele>92</ele>
        <time>2021-08-05T15:39:16Z</time>
      </trkpt>
      <trkpt lat="50.58111" lon="4.04321">
        <ele>92</ele>
        <time>2021-08-05T15:39:33Z</time>
      </trkpt>
      <trkpt lat="50.58126" lon="4.04436">
        <ele>92</ele>
        <time>2021-08-05T15:40:32Z</time>
      </trkpt>
      <trkpt lat="50.5813" lon="4.04466">
        <ele>92</ele>
        <time>2021-08-05T15:40:48Z</time>
      </trkpt>
      <trkpt lat="50.58135" lon="4.04589">
        <ele>91</ele>
        <time>2021-08-05T15:41:51Z</time>
      </trkpt>
      <trkpt lat="50.58139" lon="4.04667">
        <ele>90</ele>
        <time>2021-08-05T15:42:30Z</time>
      </trkpt>
      <trkpt lat="50.58127" lon="4.04863">
        <ele>88</ele>
        <time>2021-08-05T15:44:10Z</time>
      </trkpt>
      <trkpt lat="50.58123" lon="4.04936">
        <ele>88</ele>
        <time>2021-08-05T15:44:48Z</time>
      </trkpt>
      <trkpt lat="50.58129" lon="4.04999">
        <ele>88</ele>
        <time>2021-08-05T15:45:20Z</time>
      </trkpt>
      <trkpt lat="50.58127" lon="4.05035">
        <ele>88</ele>
        <time>2021-08-05T15:45:38Z</time>
      </trkpt>
      <trkpt lat="50.58117" lon="4.0508">
        <ele>87</ele>
        <time>2021-08-05T15:46:03Z</time>
      </trkpt>
      <trkpt lat="50.58115" lon="4.05127">
        <ele>88</ele>
        <time>2021-08-05T15:46:27Z</time>
      </trkpt>
      <trkpt lat="50.58132" lon="4.0526">
        <ele>89</ele>
        <time>2021-08-05T15:47:36Z</time>
      </trkpt>
      <trkpt lat="50.58137" lon="4.05294">
        <ele>89</ele>
        <time>2021-08-05T15:47:53Z</time>
      </trkpt>
      <trkpt lat="50.58135" lon="4.05318">
        <ele>88</ele>
        <time>2021-08-05T15:48:06Z</time>
      </trkpt>
      <trkpt lat="50.58126" lon="4.05359">
        <ele>89</ele>
        <time>2021-08-05T15:48:28Z</time>
      </trkpt>
      <trkpt lat="50.58081" lon="4.05519">
        <ele>91</ele>
        <time>2021-08-05T15:49:57Z</time>
      </trkpt>
      <trkpt lat="50.58073" lon="4.05548">
        <ele>91</ele>
        <time>2021-08-05T15:50:13Z</time>
      </trkpt>
      <trkpt lat="50.58072" lon="4.05578">
        <ele>91</ele>
        <time>2021-08-05T15:50:28Z</time>
      </trkpt>
      <trkpt lat="50.58075" lon="4.05613">
        <ele>91</ele>
        <time>2021-08-05T15:50:46Z</time>
      </trkpt>
      <trkpt lat="50.58045" lon="4.05788">
        <ele>92</ele>
        <time>2021-08-05T15:52:18Z</time>
      </trkpt>
      <trkpt lat="50.5804" lon="4.05813">
        <ele>91</ele>
        <time>2021-08-05T15:52:31Z</time>
      </trkpt>
      <trkpt lat="50.58052" lon="4.0583">
        <ele>91</ele>
        <time>2021-08-05T15:52:44Z</time>
      </trkpt>
      <trkpt lat="50.58059" lon="4.05838">
        <ele>90</ele>
        <time>2021-08-05T15:52:51Z</time>
      </trkpt>
      <trkpt lat="50.58071" lon="4.05843">
        <ele>90</ele>
        <time>2021-08-05T15:53:01Z</time>
      </trkpt>
      <trkpt lat="50.58063" lon="4.05936">
        <ele>88</ele>
        <time>2021-08-05T15:53:49Z</time>
      </trkpt>
      <trkpt lat="50.58056" lon="4.05941">
        <ele>88</ele>
        <time>2021-08-05T15:53:55Z</time>
      </trkpt>
      <trkpt lat="50.5806" lon="4.05953">
        <ele>87</ele>
        <time>2021-08-05T15:54:02Z</time>
      </trkpt>
      <trkpt lat="50.58064" lon="4.05956">
        <ele>87</ele>
        <time>2021-08-05T15:54:06Z</time>
      </trkpt>
      <trkpt lat="50.58059" lon="4.06032">
        <ele>86</ele>
        <time>2021-08-05T15:54:44Z</time>
      </trkpt>
      <trkpt lat="50.58053" lon="4.06035">
        <ele>86</ele>
        <time>2021-08-05T15:54:49Z</time>
      </trkpt>
      <trkpt lat="50.5805" lon="4.0604">
        <ele>86</ele>
        <time>2021-08-05T15:54:53Z</time>
      </trkpt>
      <trkpt lat="50.58055" lon="4.06052">
        <ele>86</ele>
        <time>2021-08-05T15:55:00Z</time>
      </trkpt>
      <trkpt lat="50.5805" lon="4.06149">
        <ele>87</ele>
        <time>2021-08-05T15:55:50Z</time>
      </trkpt>
      <trkpt lat="50.58106" lon="4.06165">
        <ele>85</ele>
        <time>2021-08-05T15:56:35Z</time>
      </trkpt>
      <trkpt lat="50.58189" lon="4.06198">
        <ele>84</ele>
        <time>2021-08-05T15:57:44Z</time>
      </trkpt>
      <trkpt lat="50.58209" lon="4.06205">
        <ele>84</ele>
        <time>2021-08-05T15:58:00Z</time>
      </trkpt>
      <trkpt lat="50.58231" lon="4.06216">
        <ele>84</ele>
        <time>2021-08-05T15:58:19Z</time>
      </trkpt>
      <trkpt lat="50.5824" lon="4.06232">
        <ele>84</ele>
        <time>2021-08-05T15:58:30Z</time>
      </trkpt>
      <trkpt lat="50.58262" lon="4.06287">
        <ele>84</ele>
        <time>2021-08-05T15:59:03Z</time>
      </trkpt>
      <trkpt lat="50.58268" lon="4.06311">
        <ele>85</ele>
        <time>2021-08-05T15:59:16Z</time>
      </trkpt>
      <trkpt lat="50.58269" lon="4.06328">
        <ele>85</ele>
        <time>2021-08-05T15:59:24Z</time>
      </trkpt>
      <trkpt lat="50.58256" lon="4.06359">
        <ele>84</ele>
        <time>2021-08-05T15:59:43Z</time>
      </trkpt>
      <trkpt lat="50.58217" lon="4.06441">
        <ele>82</ele>
        <time>2021-08-05T16:00:35Z</time>
      </trkpt>
      <trkpt lat="50.58208" lon="4.06469">
        <ele>82</ele>
        <time>2021-08-05T16:00:51Z</time>
      </trkpt>
      <trkpt lat="50.5818" lon="4.06571">
        <ele>81</ele>
        <time>2021-08-05T16:01:48Z</time>
      </trkpt>
      <trkpt lat="50.58168" lon="4.06621">
        <ele>80</ele>
        <time>2021-08-05T16:02:15Z</time>
      </trkpt>
      <trkpt lat="50.5814" lon="4.06832">
        <ele>80</ele>
        <time>2021-08-05T16:04:05Z</time>
      </trkpt>
      <trkpt lat="50.58146" lon="4.06841">
        <ele>80</ele>
        <time>2021-08-05T16:04:11Z</time>
      </trkpt>
      <trkpt lat="50.58174" lon="4.06817">
        <ele>80</ele>
        <time>2021-08-05T16:04:37Z</time>
      </trkpt>
      <trkpt lat="50.58231" lon="4.06763">
        <ele>81</ele>
        <time>2021-08-05T16:05:30Z</time>
      </trkpt>
      <trkpt lat="50.58237" lon="4.06776">
        <ele>81</ele>
        <time>2021-08-05T16:05:38Z</time>
      </trkpt>
      <trkpt lat="50.58254" lon="4.06799">
        <ele>80</ele>
        <time>2021-08-05T16:05:56Z</time>
      </trkpt>
      <trkpt lat="50.58274" lon="4.06823">
        <ele>80</ele>
        <time>2021-08-05T16:06:16Z</time>
      </trkpt>
      <trkpt lat="50.5834" lon="4.06871">
        <ele>80</ele>
        <time>2021-08-05T16:07:15Z</time>
      </trkpt>
      <trkpt lat="50.58361" lon="4.06888">
        <ele>80</ele>
        <time>2021-08-05T16:07:33Z</time>
      </trkpt>
      <trkpt lat="50.58402" lon="4.07049">
        <ele>78</ele>
        <time>2021-08-05T16:09:02Z</time>
      </trkpt>
      <trkpt lat="50.58416" lon="4.07043">
        <ele>78</ele>
        <time>2021-08-05T16:09:13Z</time>
      </trkpt>
      <trkpt lat="50.58491" lon="4.07041">
        <ele>78</ele>
        <time>2021-08-05T16:10:13Z</time>
      </trkpt>
      <trkpt lat="50.58527" lon="4.07034">
        <ele>77</ele>
        <time>2021-08-05T16:10:42Z</time>
      </trkpt>
      <trkpt lat="50.58608" lon="4.07019">
        <ele>77</ele>
        <time>2021-08-05T16:11:48Z</time>
      </trkpt>
    </trkseg>
  </trk>
</gpx>